.
WxDataArchive / Data Records for 2009-12-11
2009-12-10 December 2009 2009-12-12

Data Records for Friday, 11 December 2009

Time	Temp	Chill	HIndex	Humid	Dewpt	 Wind 	HiWind	WindDir	Rain 	Barom 
-----	----	-----	------	-----	-----	------	------	-------	-----	----- 
00:00	14.9	14.9	14.9	62	4.3	3	9	248	0.00	30.161 
00:05	15.1	15.1	15.1	62	4.5	3	7	248	0.00	30.161 
00:10	15.2	15.2	15.2	62	4.6	3	9	248	0.00	30.161 
00:15	15.4	8.9	15.4	62	4.7	4	10	248	0.00	30.166 
00:20	15.4	15.4	15.4	62	4.7	3	9	248	0.00	30.166 
00:25	15.6	15.6	15.6	61	4.6	3	10	248	0.00	30.166 
00:30	15.6	15.6	15.6	61	4.6	2	5	248	0.00	30.167 
00:35	15.9	15.9	15.9	61	4.9	3	13	248	0.00	30.167 
00:40	16.1	9.7	16.1	61	5.1	4	13	248	0.00	30.167 
00:45	16.4	10.1	16.4	61	5.3	4	10	270	0.00	30.168 
00:50	16.5	8.9	16.5	61	5.4	5	15	270	0.00	30.168 
00:55	16.7	10.4	16.7	60	5.3	4	12	248	0.00	30.168 
01:00	16.5	10.2	16.5	60	5.1	4	16	248	0.00	30.168 
01:05	16.5	8.9	16.5	60	5.1	5	11	248	0.00	30.168 
01:10	16.5	10.2	16.5	61	5.4	4	11	248	0.00	30.168 
01:15	16.5	16.5	16.5	61	5.4	3	10	248	0.00	30.170 
01:20	16.5	16.5	16.5	61	5.4	3	7	248	0.00	30.170 
01:25	16.4	16.4	16.4	61	5.3	3	7	248	0.00	30.170 
01:30	16.4	16.4	16.4	61	5.3	3	8	248	0.00	30.174 
01:35	16.4	16.4	16.4	62	5.7	2	6	248	0.00	30.174 
01:40	16.2	16.2	16.2	62	5.5	3	7	248	0.00	30.174 
01:45	16.4	10.1	16.4	62	5.7	4	9	248	0.00	30.185 
01:50	16.4	16.4	16.4	62	5.7	3	9	248	0.00	30.185 
01:55	16.4	16.4	16.4	62	5.7	3	5	248	0.00	30.185 
02:00	16.2	16.2	16.2	62	5.5	3	7	248	0.00	30.195 
02:05	16.2	16.2	16.2	63	5.9	3	7	248	0.00	30.195 
02:10	16.1	16.1	16.1	63	5.8	3	7	248	0.00	30.195 
02:15	16.2	16.2	16.2	62	5.5	3	9	248	0.00	30.201 
02:20	16.2	16.2	16.2	62	5.5	3	10	248	0.00	30.201 
02:25	16.4	10.1	16.4	62	5.7	4	14	248	0.00	30.201 
02:30	16.4	10.1	16.4	62	5.7	4	11	248	0.00	30.202 
02:35	16.4	10.1	16.4	61	5.3	4	13	248	0.00	30.202 
02:40	16.4	16.4	16.4	61	5.3	3	7	248	0.00	30.202 
02:45	16.4	16.4	16.4	61	5.3	3	7	248	0.00	30.207 
02:50	16.2	16.2	16.2	61	5.1	3	6	270	0.00	30.207 
02:55	16.2	16.2	16.2	61	5.1	3	6	248	0.00	30.207 
03:00	16.2	9.8	16.2	61	5.1	4	9	248	0.00	30.212 
03:05	16.1	16.1	16.1	61	5.1	3	7	248	0.00	30.212 
03:10	16.1	9.7	16.1	61	5.1	4	14	248	0.00	30.212 
03:15	16.1	9.7	16.1	61	5.1	4	7	270	0.00	30.209 
03:20	15.9	15.9	15.9	61	4.9	3	7	248	0.00	30.209 
03:25	15.7	15.7	15.7	62	5.0	1	3	270	0.00	30.209 
03:30	15.6	15.6	15.6	62	4.9	2	6	248	0.00	30.214 
03:35	15.6	15.6	15.6	62	4.9	3	11	248	0.00	30.214 
03:40	15.4	15.4	15.4	62	4.7	2	4	248	0.00	30.214 
03:45	15.4	15.4	15.4	62	4.7	3	7	248	0.00	30.225 
03:50	15.2	15.2	15.2	62	4.6	2	7	248	0.00	30.225 
03:55	15.2	15.2	15.2	63	4.9	2	6	248	0.00	30.225 
04:00	15.2	15.2	15.2	63	4.9	3	6	248	0.00	30.227 
04:05	15.2	15.2	15.2	63	4.9	3	6	248	0.00	30.227 
04:10	15.2	8.7	15.2	64	5.2	4	11	270	0.00	30.227 
04:15	15.4	8.9	15.4	63	5.1	4	10	270	0.00	30.231 
04:20	15.2	15.2	15.2	63	4.9	3	7	248	0.00	30.231 
04:25	15.2	15.2	15.2	63	4.9	3	7	248	0.00	30.231 
04:30	15.2	15.2	15.2	63	4.9	3	7	248	0.00	30.232 
04:35	15.2	15.2	15.2	63	4.9	3	10	248	0.00	30.232 
04:40	15.1	15.1	15.1	63	4.8	3	6	248	0.00	30.232 
04:45	15.2	15.2	15.2	63	4.9	3	11	248	0.00	30.232 
04:50	15.2	15.2	15.2	63	4.9	3	11	248	0.00	30.232 
04:55	15.2	15.2	15.2	63	4.9	3	7	248	0.00	30.232 
05:00	15.2	15.2	15.2	63	4.9	3	5	248	0.00	30.231 
05:05	15.2	8.7	15.2	63	4.9	4	10	248	0.00	30.231 
05:10	15.2	7.3	15.2	63	4.9	5	10	248	0.00	30.231 
05:15	15.4	8.9	15.4	62	4.7	4	9	248	0.00	30.234 
05:20	15.4	15.4	15.4	62	4.7	3	7	248	0.00	30.234 
05:25	15.4	15.4	15.4	62	4.7	3	6	248	0.00	30.234 
05:30	15.4	15.4	15.4	62	4.7	3	9	248	0.00	30.240 
05:35	15.4	8.9	15.4	62	4.7	4	10	248	0.00	30.240 
05:40	15.4	15.4	15.4	62	4.7	3	6	248	0.00	30.240 
05:45	15.2	15.2	15.2	62	4.6	2	4	248	0.00	30.248 
05:50	15.2	15.2	15.2	62	4.6	3	6	248	0.00	30.248 
05:55	15.1	15.1	15.1	62	4.5	3	11	248	0.00	30.248 
06:00	15.1	8.6	15.1	62	4.5	4	8	248	0.00	30.250 
06:05	15.2	15.2	15.2	62	4.6	2	10	270	0.00	30.250 
06:10	15.1	15.1	15.1	62	4.5	2	5	248	0.00	30.250 
06:15	15.1	15.1	15.1	62	4.5	2	5	248	0.00	30.261 
06:20	15.1	15.1	15.1	62	4.5	3	10	248	0.00	30.261 
06:25	15.1	15.1	15.1	62	4.5	3	10	248	0.00	30.261 
06:30	15.2	15.2	15.2	62	4.6	3	7	248	0.00	30.266 
06:35	15.1	15.1	15.1	62	4.5	3	7	248	0.00	30.266 
06:40	15.1	15.1	15.1	62	4.5	3	8	248	0.00	30.266 
06:45	15.1	15.1	15.1	62	4.5	2	5	248	0.00	30.280 
06:50	15.1	15.1	15.1	62	4.5	2	7	248	0.00	30.280 
06:55	15.1	15.1	15.1	62	4.5	2	7	270	0.00	30.280 
07:00	15.1	15.1	15.1	62	4.5	3	9	270	0.00	30.291 
07:05	15.2	15.2	15.2	62	4.6	3	9	248	0.00	30.291 
07:10	15.2	15.2	15.2	62	4.6	2	9	248	0.00	30.291 
07:15	15.2	15.2	15.2	62	4.6	3	10	248	0.00	30.296 
07:20	15.2	8.7	15.2	62	4.6	4	7	248	0.00	30.296 
07:25	15.2	15.2	15.2	62	4.6	3	9	248	0.00	30.296 
07:30	15.4	8.9	15.4	62	4.7	4	11	248	0.00	30.308 
07:35	15.4	15.4	15.4	62	4.7	3	9	248	0.00	30.308 
07:40	15.2	15.2	15.2	63	4.9	2	6	248	0.00	30.308 
07:45	15.2	8.7	15.2	63	4.9	4	8	248	0.00	30.313 
07:50	15.2	8.7	15.2	63	4.9	4	9	248	0.00	30.313 
07:55	15.2	8.7	15.2	63	4.9	4	13	248	0.00	30.313 
08:00	15.2	15.2	15.2	63	4.9	3	7	248	0.00	30.323 
08:05	15.2	15.2	15.2	63	4.9	3	7	248	0.00	30.323 
08:10	15.1	15.1	15.1	63	4.8	3	7	248	0.00	30.323 
08:15	15.2	15.2	15.2	63	4.9	3	9	248	0.00	30.328 
08:20	15.2	15.2	15.2	63	4.9	3	9	248	0.00	30.328 
08:25	15.4	8.9	15.4	63	5.1	4	10	248	0.00	30.328 
08:30	15.4	15.4	15.4	63	5.1	3	11	248	0.00	30.329 
08:35	15.4	15.4	15.4	63	5.1	3	7	248	0.00	30.329 
08:40	15.6	15.6	15.6	63	5.3	2	10	248	0.00	30.329 
08:45	15.7	7.9	15.7	62	5.0	5	11	248	0.00	30.333 
08:50	15.9	15.9	15.9	62	5.2	3	10	248	0.00	30.333 
08:55	16.1	16.1	16.1	62	5.4	3	9	248	0.00	30.333 
09:00	16.1	9.7	16.1	62	5.4	4	7	248	0.00	30.341 
09:05	16.4	10.1	16.4	62	5.7	4	9	248	0.00	30.341 
09:10	16.5	16.5	16.5	61	5.4	3	6	248	0.00	30.341 
09:15	16.7	10.4	16.7	60	5.3	4	11	248	0.00	30.344 
09:20	16.9	10.6	16.9	60	5.4	4	13	248	0.00	30.344 
09:25	17.0	17.0	17.0	60	5.5	3	10	248	0.00	30.344 
09:30	17.3	17.3	17.3	60	5.8	3	7	248	0.00	30.355 
09:35	17.5	17.5	17.5	60	6.0	3	12	270	0.00	30.355 
09:40	17.7	10.3	17.7	59	5.8	5	14	248	0.00	30.355 
09:45	17.8	17.8	17.8	59	5.9	3	10	248	0.00	30.358 
09:50	18.1	18.1	18.1	59	6.2	2	9	248	0.00	30.358 
09:55	18.3	12.3	18.3	58	6.0	4	15	270	0.00	30.358 
10:00	18.4	18.4	18.4	58	6.1	3	12	248	0.00	30.370 
10:05	18.6	11.3	18.6	57	5.9	5	12	270	0.00	30.370 
10:10	18.8	18.8	18.8	58	6.5	3	9	248	0.00	30.370 
10:15	19.1	19.1	19.1	58	6.8	3	9	248	0.00	30.375 
10:20	19.2	19.2	19.2	58	6.9	3	10	248	0.00	30.375 
10:25	19.5	19.5	19.5	58	7.2	3	10	248	0.00	30.375 
10:30	19.7	19.7	19.7	57	7.0	3	10	248	0.00	30.382 
10:35	19.7	13.9	19.7	57	7.0	4	9	248	0.00	30.382 
10:40	19.9	14.1	19.9	57	7.2	4	12	248	0.00	30.382 
10:45	20.0	14.2	20.0	56	6.9	4	10	270	0.00	30.380 
10:50	20.2	14.4	20.2	56	7.0	4	12	270	0.00	30.380 
10:55	20.5	14.8	20.5	56	7.3	4	10	248	0.00	30.380 
11:00	20.6	14.9	20.6	56	7.4	4	14	248	0.00	30.383 
11:05	21.0	15.4	21.0	56	7.8	4	9	248	0.00	30.383 
11:10	21.1	15.5	21.1	57	8.3	4	13	248	0.00	30.383 
11:15	21.4	15.8	21.4	56	8.2	4	11	248	0.00	30.378 
11:20	21.8	21.8	21.8	55	8.1	3	11	248	0.00	30.378 
11:25	21.9	16.4	21.9	55	8.2	4	10	248	0.00	30.378 
11:30	22.1	22.1	22.1	55	8.4	3	9	248	0.00	30.372 
11:35	22.4	17.0	22.4	55	8.7	4	13	248	0.00	30.372 
11:40	22.5	22.5	22.5	54	8.4	3	11	270	0.00	30.372 
11:45	22.7	22.7	22.7	54	8.6	2	5	248	0.00	30.369 
11:50	23.0	23.0	23.0	53	8.4	3	12	248	0.00	30.369 
11:55	23.0	16.5	23.0	53	8.4	5	13	248	0.00	30.369 
12:00	23.2	23.2	23.2	52	8.2	3	6	248	0.00	30.364 
12:05	23.5	23.5	23.5	53	8.9	3	7	270	0.00	30.364 
12:10	23.5	17.1	23.5	52	8.5	5	13	248	0.00	30.364 
12:15	23.8	23.8	23.8	53	9.2	3	9	248	0.00	30.359 
12:20	23.9	18.7	23.9	53	9.3	4	10	292	0.00	30.359 
12:25	24.1	24.1	24.1	53	9.5	3	12	270	0.00	30.359 
12:30	24.1	19.0	24.1	52	9.1	4	11	270	0.00	30.349 
12:35	24.4	24.4	24.4	52	9.3	3	7	270	0.00	30.349 
12:40	24.5	24.5	24.5	53	9.8	3	9	270	0.00	30.349 
12:45	24.8	24.8	24.8	52	9.7	3	9	270	0.00	30.345 
12:50	25.1	25.1	25.1	53	10.4	3	7	248	0.00	30.345 
12:55	25.4	25.4	25.4	51	9.8	2	4	248	0.00	30.345 
13:00	25.6	20.7	25.6	50	9.6	4	11	270	0.00	30.344 
13:05	25.7	25.7	25.7	51	10.1	3	7	248	0.00	30.344 
13:10	25.7	25.7	25.7	51	10.1	3	7	248	0.00	30.344 
13:15	26.0	26.0	26.0	49	9.5	3	9	270	0.00	30.340 
13:20	26.0	21.1	26.0	49	9.5	4	9	248	0.00	30.340 
13:25	26.0	21.1	26.0	49	9.5	4	10	248	0.00	30.340 
13:30	26.1	26.1	26.1	51	10.5	3	9	248	0.00	30.337 
13:35	26.4	26.4	26.4	50	10.3	2	6	248	0.00	30.337 
13:40	26.7	26.7	26.7	48	9.7	3	8	248	0.00	30.337 
13:45	26.7	26.7	26.7	47	9.2	3	7	270	0.00	30.334 
13:50	27.0	27.0	27.0	48	10.0	3	6	248	0.00	30.334 
13:55	27.2	27.2	27.2	50	11.1	2	7	248	0.00	30.334 
14:00	27.2	22.5	27.2	48	10.1	4	9	248	0.00	30.335 
14:05	27.2	22.5	27.2	48	10.1	4	12	248	0.00	30.335 
14:10	27.2	27.2	27.2	49	10.6	2	5	248	0.00	30.335 
14:15	27.3	22.6	27.3	47	9.8	4	9	248	0.00	30.334 
14:20	27.5	22.9	27.5	47	9.9	4	8	248	0.00	30.334 
14:25	27.6	27.6	27.6	47	10.0	3	6	248	0.00	30.334 
14:30	27.8	27.8	27.8	47	10.2	3	10	248	0.00	30.333 
14:35	28.1	28.1	28.1	48	11.0	3	7	248	0.00	30.333 
14:40	27.9	23.3	27.9	46	9.8	4	9	248	0.00	30.333 
14:45	27.9	27.9	27.9	47	10.3	3	10	248	0.00	30.336 
14:50	27.9	23.3	27.9	47	10.3	4	11	248	0.00	30.336 
14:55	27.9	27.9	27.9	47	10.3	3	5	270	0.00	30.336 
15:00	28.1	28.1	28.1	47	10.5	2	6	270	0.00	30.340 
15:05	28.2	28.2	28.2	47	10.6	3	10	248	0.00	30.340 
15:10	28.4	28.4	28.4	47	10.8	2	6	248	0.00	30.340 
15:15	28.5	28.5	28.5	46	10.4	3	6	248	0.00	30.343 
15:20	28.5	28.5	28.5	47	10.9	2	6	248	0.00	30.343 
15:25	28.5	28.5	28.5	47	10.9	3	7	270	0.00	30.343 
15:30	28.7	28.7	28.7	46	10.6	2	6	248	0.00	30.351 
15:35	28.8	28.8	28.8	47	11.1	2	6	270	0.00	30.351 
15:40	28.8	28.8	28.8	47	11.1	3	6	270	0.00	30.351 
15:45	28.8	28.8	28.8	46	10.7	3	9	270	0.00	30.355 
15:50	28.8	28.8	28.8	46	10.7	3	6	248	0.00	30.355 
15:55	28.5	28.5	28.5	48	11.3	3	11	292	0.00	30.355 
16:00	28.4	28.4	28.4	48	11.2	2	6	225	0.00	30.359 
16:05	28.2	28.2	28.2	49	11.5	3	7	270	0.00	30.359 
16:10	28.2	28.2	28.2	49	11.5	2	6	248	0.00	30.359 
16:15	28.2	28.2	28.2	49	11.5	2	5	248	0.00	30.373 
16:20	27.9	27.9	27.9	50	11.7	3	9	248	0.00	30.373 
16:25	27.9	27.9	27.9	50	11.7	3	7	248	0.00	30.373 
16:30	27.8	27.8	27.8	51	12.1	2	5	270	0.00	30.377 
16:35	27.8	27.8	27.8	52	12.5	2	4	270	0.00	30.377 
16:40	27.6	27.6	27.6	52	12.3	2	5	248	0.00	30.377 
16:45	27.5	27.5	27.5	52	12.2	3	10	248	0.00	30.376 
16:50	27.3	27.3	27.3	53	12.5	3	9	248	0.00	30.376 
16:55	27.2	27.2	27.2	54	12.8	2	6	225	0.00	30.376 
17:00	27.0	27.0	27.0	54	12.6	3	6	248	0.00	30.376 
17:05	27.0	27.0	27.0	54	12.6	1	4	248	0.00	30.376 
17:10	26.7	26.7	26.7	54	12.3	1	3	248	0.00	30.376 
17:15	26.7	26.7	26.7	54	12.3	2	4	248	0.00	30.367 
17:20	26.6	26.6	26.6	55	12.6	1	5	248	0.00	30.367 
17:25	26.6	26.6	26.6	55	12.6	1	4	248	0.00	30.367 
17:30	26.4	26.4	26.4	55	12.5	1	5	248	0.00	30.376 
17:35	26.3	26.3	26.3	56	12.8	1	5	248	0.00	30.376 
17:40	26.3	26.3	26.3	56	12.8	0	3	248	0.00	30.376 
17:45	26.0	26.0	26.0	57	12.9	1	3	248	0.00	30.373 
17:50	26.0	26.0	26.0	57	12.9	1	3	248	0.00	30.373 
17:55	25.8	25.8	25.8	57	12.7	0	2	248	0.00	30.373 
18:00	25.7	25.7	25.7	58	13.0	0	3	248	0.00	30.378 
18:05	25.6	25.6	25.6	58	12.9	0	2	248	0.00	30.378 
18:10	25.4	25.4	25.4	59	13.1	0	3	248	0.00	30.378 
18:15	25.4	25.4	25.4	59	13.1	0	2	248	0.00	30.379 
18:20	25.3	25.3	25.3	60	13.4	0	2	248	0.00	30.379 
18:25	25.1	25.1	25.1	60	13.2	0	1	248	0.00	30.379 
18:30	25.0	25.0	25.0	60	13.1	0	1	248	0.00	30.380 
18:35	24.7	24.7	24.7	61	13.2	0	0	---	0.00	30.380 
18:40	24.4	24.4	24.4	62	13.3	0	2	248	0.00	30.380 
18:45	24.2	24.2	24.2	62	13.1	0	2	248	0.00	30.386 
18:50	23.9	23.9	23.9	63	13.2	0	1	248	0.00	30.386 
18:55	23.8	23.8	23.8	63	13.1	0	1	248	0.00	30.386 
19:00	23.6	23.6	23.6	64	13.2	0	1	248	0.00	30.381 
19:05	23.5	23.5	23.5	64	13.1	0	1	248	0.00	30.381 
19:10	23.5	23.5	23.5	65	13.5	0	2	248	0.00	30.381 
19:15	23.5	23.5	23.5	65	13.5	0	2	248	0.00	30.382 
19:20	23.5	23.5	23.5	65	13.5	0	3	248	0.00	30.382 
19:25	23.6	23.6	23.6	65	13.6	0	2	248	0.00	30.382 
19:30	23.8	23.8	23.8	65	13.8	0	3	248	0.00	30.384 
19:35	23.9	23.9	23.9	65	13.9	0	3	248	0.00	30.384 
19:40	23.9	23.9	23.9	65	13.9	0	2	248	0.00	30.384 
19:45	23.9	23.9	23.9	65	13.9	0	2	248	0.00	30.386 
19:50	23.9	23.9	23.9	65	13.9	0	2	248	0.00	30.386 
19:55	23.9	23.9	23.9	66	14.2	1	3	248	0.00	30.386 
20:00	24.1	24.1	24.1	66	14.4	0	2	248	0.00	30.385 
20:05	24.1	24.1	24.1	66	14.4	0	3	248	0.00	30.385 
20:10	23.9	23.9	23.9	66	14.2	1	4	248	0.00	30.385 
20:15	24.1	24.1	24.1	67	14.8	1	4	248	0.00	30.388 
20:20	24.4	24.4	24.4	67	15.0	2	5	248	0.00	30.388 
20:25	24.7	24.7	24.7	67	15.3	1	4	248	0.00	30.388 
20:30	24.8	24.8	24.8	66	15.1	1	3	248	0.00	30.388 
20:35	25.0	25.0	25.0	66	15.3	2	5	248	0.00	30.388 
20:40	25.1	25.1	25.1	66	15.4	2	7	248	0.00	30.388 
20:45	25.3	25.3	25.3	66	15.6	1	4	248	0.00	30.384 
20:50	25.3	25.3	25.3	66	15.6	1	5	248	0.00	30.384 
20:55	25.3	25.3	25.3	66	15.6	1	3	248	0.00	30.384 
21:00	25.4	25.4	25.4	66	15.7	1	5	248	0.00	30.381 
21:05	25.4	25.4	25.4	65	15.3	2	9	248	0.00	30.381 
21:10	25.6	25.6	25.6	65	15.5	1	5	248	0.00	30.381 
21:15	25.6	25.6	25.6	65	15.5	2	5	248	0.00	30.386 
21:20	25.6	25.6	25.6	65	15.5	2	5	248	0.00	30.386 
21:25	25.6	25.6	25.6	65	15.5	2	4	248	0.00	30.386 
21:30	25.7	25.7	25.7	64	15.2	2	5	248	0.00	30.388 
21:35	25.7	25.7	25.7	63	14.9	2	6	248	0.00	30.388 
21:40	25.8	25.8	25.8	62	14.6	2	6	248	0.00	30.388 
21:45	26.0	26.0	26.0	62	14.8	1	7	248	0.00	30.390 
21:50	26.0	26.0	26.0	62	14.8	2	6	248	0.00	30.390 
21:55	26.0	26.0	26.0	62	14.8	2	5	225	0.00	30.390 
22:00	26.0	26.0	26.0	61	14.4	2	6	225	0.00	30.391 
22:05	26.0	26.0	26.0	61	14.4	2	5	248	0.00	30.391 
22:10	26.0	26.0	26.0	61	14.4	1	3	248	0.00	30.391 
22:15	25.8	25.8	25.8	61	14.2	0	3	248	0.00	30.401 
22:20	25.7	25.7	25.7	61	14.1	1	5	248	0.00	30.401 
22:25	25.6	25.6	25.6	61	14.0	1	4	248	0.00	30.401 
22:30	25.4	25.4	25.4	62	14.2	0	2	248	0.00	30.403 
22:35	25.1	25.1	25.1	62	13.9	0	2	248	0.00	30.403 
22:40	25.0	25.0	25.0	62	13.8	0	2	248	0.00	30.403 
22:45	24.7	24.7	24.7	62	13.6	0	3	248	0.00	30.406 
22:50	24.5	24.5	24.5	63	13.7	0	3	248	0.00	30.406 
22:55	24.2	24.2	24.2	63	13.4	0	1	248	0.00	30.406 
23:00	24.1	24.1	24.1	63	13.4	0	0	---	0.00	30.414 
23:05	23.9	23.9	23.9	64	13.5	0	4	248	0.00	30.414 
23:10	23.8	23.8	23.8	64	13.4	0	2	248	0.00	30.414 
23:15	23.8	23.8	23.8	64	13.4	0	2	248	0.00	30.408 
23:20	23.8	23.8	23.8	63	13.1	0	2	248	0.00	30.408 
23:25	23.8	23.8	23.8	63	13.1	0	3	248	0.00	30.408 
23:30	23.8	23.8	23.8	63	13.1	0	1	248	0.00	30.406 
23:35	23.6	23.6	23.6	63	12.9	0	0	---	0.00	30.406 
23:40	23.6	23.6	23.6	63	12.9	0	3	248	0.00	30.406 
23:45	23.9	23.9	23.9	62	12.8	1	4	248	0.00	30.411 
23:50	24.1	24.1	24.1	62	13.0	0	2	248	0.00	30.411 
23:55	24.1	24.1	24.1	61	12.6	0	1	248	0.00	30.411 

CoCoRaHS
IN-AL-39
A2 Web Hosting
Creative Commons License
GoDaddy
search engine by freefind advanced

loaded 2018-11-17 12:25:53 • last modified 2010-11-18 10:43:29
Privacy PolicyDisclaimer
• wx.awcolley.com is powered by PmWiki v.2002016 •
• all content (unless otherwise noted) © 2018 A W Colley